Time;durP1;ratioP1;P1;durP2;ratioP2;P2;SDS_P1;SDS_P2;PMS_P1;PMS_P2;Temp;Humidity;BMP_temperature;BMP_pressure;BME280_temperature;BME280_humidity;BME280_pressure;Samples;Min_cycle;Max_cycle;Signal;HPM_P1;HPM_P2
2021/11/25 00:02:15;;;;;;;0.05;0.03;;;;;16.70;100300.00;;;;5088383;28;20483;-80
2021/11/25 00:04:45;;;;;;;1.38;0.43;;;;;16.70;100293.00;;;;5088865;28;20422;-80
2021/11/25 00:07:14;;;;;;;0.00;0.00;;;;;16.70;100285.00;;;;5106808;28;20032;-80
2021/11/25 00:09:44;;;;;;;0.93;0.82;;;;;16.70;100302.00;;;;5104533;28;20044;-81
2021/11/25 00:12:13;;;;;;;0.13;0.13;;;;;16.70;100300.00;;;;5106508;28;20035;-80
2021/11/25 00:14:43;;;;;;;0.00;0.00;;;;;16.70;100288.00;;;;5095199;28;20605;-81
2021/11/25 00:17:12;;;;;;;0.00;0.00;;;;;16.70;100293.00;;;;5074959;28;20064;-78
2021/11/25 00:19:42;;;;;;;0.57;0.35;;;;;16.60;100291.00;;;;5088290;28;20100;-79
2021/11/25 00:22:11;;;;;;;6.35;1.00;;;;;16.60;100282.00;;;;5105780;28;20093;-80
2021/11/25 00:24:41;;;;;;;0.00;0.00;;;;;16.50;100277.00;;;;5091294;28;20056;-79
2021/11/25 00:27:11;;;;;;;0.43;0.25;;;;;16.50;100291.00;;;;5110166;28;20126;-78
2021/11/25 00:29:44;;;;;;;1.15;0.80;;;;;16.70;100286.00;;;;5089638;28;20094;-80
2021/11/25 00:32:14;;;;;;;1.33;0.85;;;;;16.70;100286.00;;;;5090237;28;20040;-80
2021/11/25 00:34:46;;;;;;;0.10;0.10;;;;;16.70;100290.00;;;;5107687;28;20044;-80
2021/11/25 00:37:15;;;;;;;1.02;0.50;;;;;16.70;100288.00;;;;5109466;28;20043;-80
2021/11/25 00:39:45;;;;;;;1.98;0.57;;;;;16.60;100277.00;;;;5110684;28;20043;-79
2021/11/25 00:42:14;;;;;;;0.00;0.00;;;;;16.60;100292.00;;;;5110530;28;20101;-79
2021/11/25 00:44:44;;;;;;;3.55;0.85;;;;;16.60;100283.00;;;;5110116;28;20044;-79
2021/11/25 00:47:13;;;;;;;0.22;0.22;;;;;16.50;100287.00;;;;5110230;28;20048;-80
2021/11/25 00:49:42;;;;;;;0.00;0.00;;;;;16.40;100283.00;;;;5110407;28;20055;-81
2021/11/25 00:52:12;;;;;;;0.00;0.00;;;;;16.40;100270.00;;;;5110459;28;20047;-80
2021/11/25 00:54:42;;;;;;;0.55;0.55;;;;;16.40;100271.00;;;;5091795;28;20422;-79
2021/11/25 00:57:12;;;;;;;0.20;0.20;;;;;16.50;100278.00;;;;5109990;28;20545;-79
2021/11/25 00:59:41;;;;;;;0.45;0.25;;;;;16.50;100271.00;;;;5074657;28;20043;-79
2021/11/25 01:02:10;;;;;;;1.35;0.85;;;;;16.50;100270.00;;;;5088632;28;20463;-79
2021/11/25 01:04:40;;;;;;;0.00;0.00;;;;;16.40;100266.00;;;;5097154;28;20043;-79
2021/11/25 01:07:10;;;;;;;0.00;0.00;;;;;16.20;100274.00;;;;5099380;28;20047;-79
2021/11/25 01:09:40;;;;;;;0.00;0.00;;;;;16.20;100271.00;;;;5093956;28;20035;-79
2021/11/25 01:12:11;;;;;;;0.00;0.00;;;;;16.20;100296.00;;;;5098789;28;20458;-79
2021/11/25 01:14:41;;;;;;;2.78;0.68;;;;;16.20;100270.00;;;;5098377;28;20044;-78
2021/11/25 01:17:10;;;;;;;0.00;0.00;;;;;16.20;100282.00;;;;5100563;28;20056;-78
2021/11/25 01:19:40;;;;;;;0.00;0.00;;;;;16.10;100284.00;;;;5109704;28;20562;-78
2021/11/25 01:22:09;;;;;;;0.22;0.20;;;;;16.00;100303.00;;;;5108972;28;20054;-80
2021/11/25 01:24:39;;;;;;;0.08;0.08;;;;;16.00;100295.00;;;;5109263;28;20057;-78
2021/11/25 01:27:09;;;;;;;0.32;0.32;;;;;16.00;100313.00;;;;5074126;28;20043;-79
2021/11/25 01:29:39;;;;;;;2.03;0.70;;;;;16.00;100301.00;;;;5108672;28;20036;-79
2021/11/25 01:32:08;;;;;;;0.00;0.00;;;;;15.90;100309.00;;;;5108820;28;20047;-78
2021/11/25 01:34:38;;;;;;;0.00;0.00;;;;;15.90;100290.00;;;;5090525;28;20603;-78
2021/11/25 01:37:07;;;;;;;2.60;0.70;;;;;15.90;100294.00;;;;5090288;28;20059;-78
2021/11/25 01:39:37;;;;;;;0.30;0.30;;;;;15.90;100313.00;;;;5090767;28;20043;-78
2021/11/25 01:42:07;;;;;;;0.00;0.00;;;;;15.90;100306.00;;;;5109107;28;20055;-79
2021/11/25 01:44:37;;;;;;;0.13;0.13;;;;;15.80;100307.00;;;;5108547;28;20097;-79
2021/11/25 01:47:06;;;;;;;0.00;0.00;;;;;15.80;100306.00;;;;5108589;28;20051;-78
2021/11/25 01:49:36;;;;;;;0.95;0.17;;;;;15.70;100298.00;;;;5108305;28;20104;-79
2021/11/25 01:52:05;;;;;;;0.00;0.00;;;;;15.80;100303.00;;;;5090503;28;20140;-79
2021/11/25 01:54:39;;;;;;;0.00;0.00;;;;;15.80;100311.00;;;;5108872;28;20036;-79
2021/11/25 01:57:08;;;;;;;1.17;0.40;;;;;15.70;100304.00;;;;5108462;28;20089;-79
2021/11/25 01:59:38;;;;;;;0.00;0.00;;;;;15.70;100299.00;;;;5090107;28;20605;-78
2021/11/25 02:02:09;;;;;;;0.00;0.00;;;;;15.70;100300.00;;;;5108492;28;20537;-79
2021/11/25 02:04:40;;;;;;;0.32;0.20;;;;;15.80;100303.00;;;;5107968;28;20059;-79
2021/11/25 02:07:10;;;;;;;0.00;0.00;;;;;15.70;100301.00;;;;5108682;28;20130;-79
2021/11/25 02:09:39;;;;;;;0.80;0.80;;;;;15.70;100292.00;;;;5108525;28;20055;-78
2021/11/25 02:12:08;;;;;;;0.10;0.10;;;;;15.70;100282.00;;;;5108455;28;20042;-78
2021/11/25 02:14:39;;;;;;;1.10;0.60;;;;;15.70;100305.00;;;;5108158;28;20521;-78
2021/11/25 02:17:09;;;;;;;0.00;0.00;;;;;15.60;100280.00;;;;5108294;28;20056;-78
2021/11/25 02:19:38;;;;;;;0.00;0.00;;;;;15.60;100293.00;;;;5109388;28;20452;-79
2021/11/25 02:22:08;;;;;;;0.00;0.00;;;;;15.50;100277.00;;;;5090535;28;20039;-79
2021/11/25 02:24:39;;;;;;;0.10;0.10;;;;;15.50;100299.00;;;;5108229;28;20134;-78
2021/11/25 02:27:08;;;;;;;0.60;0.60;;;;;15.50;100284.00;;;;5107986;28;20422;-78
2021/11/25 02:29:41;;;;;;;0.65;0.63;;;;;15.50;100277.00;;;;5107900;28;20040;-79
2021/11/25 02:32:10;;;;;;;0.00;0.00;;;;;15.50;100267.00;;;;5107934;28;20068;-79
2021/11/25 02:34:40;;;;;;;0.05;0.05;;;;;15.30;100277.00;;;;5107949;28;20047;-79
2021/11/25 02:37:09;;;;;;;0.00;0.00;;;;;15.30;100269.00;;;;5107751;28;20047;-79
2021/11/25 02:39:39;;;;;;;8.68;1.02;;;;;15.30;100275.00;;;;5107765;28;20054;-79
2021/11/25 02:42:08;;;;;;;5.95;0.32;;;;;15.30;100262.00;;;;5107932;28;20043;-79
2021/11/25 02:44:39;;;;;;;0.00;0.00;;;;;15.30;100266.00;;;;5090648;28;20075;-79
2021/11/25 02:47:08;;;;;;;0.00;0.00;;;;;15.20;100283.00;;;;5107745;28;20035;-79
2021/11/25 02:49:40;;;;;;;0.10;0.10;;;;;15.20;100282.00;;;;5089346;28;20160;-78
2021/11/25 02:52:09;;;;;;;0.43;0.43;;;;;15.20;100284.00;;;;5108633;28;20046;-78
2021/11/25 02:54:43;;;;;;;0.20;0.20;;;;;15.30;100278.00;;;;5108133;28;20041;-78
2021/11/25 02:57:13;;;;;;;0.05;0.05;;;;;15.20;100275.00;;;;5108038;28;20039;-78
2021/11/25 02:59:42;;;;;;;0.17;0.17;;;;;15.20;100260.00;;;;5107643;28;20040;-79
2021/11/25 03:02:12;;;;;;;0.25;0.25;;;;;15.20;100260.00;;;;5107499;28;20134;-79
2021/11/25 03:04:42;;;;;;;0.33;0.33;;;;;15.20;100250.00;;;;5107669;28;20502;-79
2021/11/25 03:07:12;;;;;;;1.40;0.95;;;;;15.20;100266.00;;;;5108099;28;20084;-79
2021/11/25 03:09:41;;;;;;;1.90;0.90;;;;;15.30;100261.00;;;;5106906;28;20063;-79
2021/11/25 03:12:10;;;;;;;0.35;0.35;;;;;15.20;100256.00;;;;5089447;28;20059;-79
2021/11/25 03:14:41;;;;;;;0.00;0.00;;;;;15.10;100247.00;;;;5107524;28;20052;-79
2021/11/25 03:17:10;;;;;;;1.08;1.05;;;;;15.20;100254.00;;;;5088917;28;20051;-78
2021/11/25 03:19:40;;;;;;;2.75;1.23;;;;;15.20;100254.00;;;;5089250;28;20059;-79
2021/11/25 03:22:09;;;;;;;0.75;0.60;;;;;15.20;100251.00;;;;5107355;28;20043;-78
2021/11/25 03:24:39;;;;;;;0.00;0.00;;;;;15.00;100244.00;;;;5107338;28;20046;-79
2021/11/25 03:27:08;;;;;;;0.85;0.28;;;;;15.00;100239.00;;;;5107068;28;20044;-79
2021/11/25 03:29:37;;;;;;;9.20;2.08;;;;;14.90;100247.00;;;;5107001;28;20044;-78
2021/11/25 03:32:07;;;;;;;0.00;0.00;;;;;14.90;100239.00;;;;5106691;28;20077;-78
2021/11/25 03:34:37;;;;;;;0.70;0.55;;;;;14.90;100230.00;;;;5089614;28;20087;-78
2021/11/25 03:37:07;;;;;;;0.82;0.80;;;;;14.80;100231.00;;;;5088727;28;20043;-79
2021/11/25 03:39:36;;;;;;;0.00;0.00;;;;;14.80;100215.00;;;;5107034;28;20098;-78
2021/11/25 03:42:06;;;;;;;0.00;0.00;;;;;14.80;100214.00;;;;5106836;28;20056;-79
2021/11/25 03:44:35;;;;;;;0.00;0.00;;;;;14.80;100201.00;;;;5106457;28;20123;-79
2021/11/25 03:47:05;;;;;;;0.50;0.50;;;;;14.70;100204.00;;;;5106381;28;20031;-78
2021/11/25 03:49:34;;;;;;;1.17;0.43;;;;;14.70;100202.00;;;;5106600;28;20048;-79
2021/11/25 03:52:04;;;;;;;0.00;0.00;;;;;14.70;100206.00;;;;5107535;28;20048;-78
2021/11/25 03:54:35;;;;;;;0.08;0.08;;;;;14.70;100205.00;;;;5106826;28;20521;-78
2021/11/25 03:57:05;;;;;;;0.00;0.00;;;;;14.70;100210.00;;;;5106094;28;20043;-79
2021/11/25 03:59:35;;;;;;;0.00;0.00;;;;;14.60;100207.00;;;;5088081;28;20444;-78
2021/11/25 04:02:04;;;;;;;0.00;0.00;;;;;14.60;100194.00;;;;5107196;28;20035;-79
2021/11/25 04:04:35;;;;;;;0.00;0.00;;;;;14.50;100201.00;;;;5107086;28;20127;-79
2021/11/25 04:07:04;;;;;;;0.00;0.00;;;;;14.30;100200.00;;;;5088467;28;20044;-79
2021/11/25 04:09:34;;;;;;;0.55;0.47;;;;;14.30;100206.00;;;;5106295;28;20043;-79
2021/11/25 04:12:04;;;;;;;0.00;0.00;;;;;14.20;100190.00;;;;5106843;28;20075;-79
2021/11/25 04:14:35;;;;;;;0.00;0.00;;;;;14.20;100183.00;;;;5106396;28;20040;-78
2021/11/25 04:17:05;;;;;;;0.00;0.00;;;;;14.30;100188.00;;;;5088174;28;20055;-79
2021/11/25 04:19:34;;;;;;;0.15;0.13;;;;;14.20;100184.00;;;;5106398;28;20480;-78
2021/11/25 04:22:04;;;;;;;0.00;0.00;;;;;14.10;100154.00;;;;5106265;28;20113;-79
2021/11/25 04:24:33;;;;;;;0.00;0.00;;;;;14.00;100160.00;;;;5089087;28;20044;-79
2021/11/25 04:27:03;;;;;;;0.00;0.00;;;;;13.90;100156.00;;;;5107134;28;20048;-79
2021/11/25 04:29:34;;;;;;;0.88;0.20;;;;;14.00;100157.00;;;;5106756;28;20088;-78
2021/11/25 04:37:40;;;;;;;10.32;0.47;;;;;14.10;100155.00;;;;5106149;28;20856;-78
2021/11/25 04:40:10;;;;;;;0.00;0.00;;;;;14.10;100147.00;;;;5106814;28;20562;-78
2021/11/25 04:42:40;;;;;;;1.15;1.05;;;;;14.10;100133.00;;;;5071390;28;20429;-79
2021/11/25 04:45:10;;;;;;;0.20;0.20;;;;;14.10;100123.00;;;;5105886;28;20044;-79
2021/11/25 04:47:39;;;;;;;16.23;0.40;;;;;14.10;100126.00;;;;5106598;28;20536;-79
2021/11/25 04:50:09;;;;;;;0.85;0.60;;;;;14.20;100122.00;;;;5106662;28;20055;-79
2021/11/25 04:52:43;;;;;;;5.07;0.93;;;;;14.20;100110.00;;;;5107114;28;20073;-78
2021/11/25 04:55:13;;;;;;;0.00;0.00;;;;;14.20;100110.00;;;;5106379;28;20042;-79
2021/11/25 04:57:43;;;;;;;0.80;0.75;;;;;14.10;100122.00;;;;5106591;28;20036;-78
2021/11/25 05:00:14;;;;;;;3.40;1.00;;;;;14.10;100117.00;;;;5105886;28;20039;-78
2021/11/25 05:02:44;;;;;;;0.93;0.88;;;;;14.10;100108.00;;;;5087852;28;20073;-78
2021/11/25 05:05:14;;;;;;;0.60;0.45;;;;;14.00;100125.00;;;;5088036;28;20044;-79
2021/11/25 05:07:43;;;;;;;0.00;0.00;;;;;14.00;100110.00;;;;5105694;28;20525;-79
2021/11/25 05:10:13;;;;;;;0.10;0.10;;;;;13.90;100110.00;;;;5106891;28;20089;-78
2021/11/25 05:12:42;;;;;;;0.10;0.10;;;;;13.90;100130.00;;;;5109524;28;20117;-79
2021/11/25 05:15:14;;;;;;;3.20;1.00;;;;;14.00;100097.00;;;;5109491;28;20040;-78
2021/11/25 05:17:44;;;;;;;0.22;0.22;;;;;14.00;100113.00;;;;5087783;28;20140;-78
2021/11/25 05:20:15;;;;;;;4.28;1.13;;;;;13.90;100099.00;;;;5090449;28;20089;-78
2021/11/25 05:22:45;;;;;;;1.55;0.70;;;;;14.10;100107.00;;;;5088503;28;20052;-78
2021/11/25 05:25:15;;;;;;;0.10;0.10;;;;;14.10;100109.00;;;;5087628;28;20456;-79
2021/11/25 05:27:45;;;;;;;0.00;0.00;;;;;14.00;100101.00;;;;5089046;28;20508;-79
2021/11/25 05:30:16;;;;;;;1.30;0.85;;;;;13.90;100092.00;;;;5087780;28;20081;-79
2021/11/25 05:32:46;;;;;;;9.73;1.70;;;;;13.90;100103.00;;;;5088909;28;20051;-79
2021/11/25 05:35:17;;;;;;;0.55;0.55;;;;;13.90;100108.00;;;;5090190;28;20047;-78
2021/11/25 05:37:46;;;;;;;3.20;0.75;;;;;13.80;100094.00;;;;5089966;28;20055;-79
2021/11/25 05:40:16;;;;;;;0.98;0.50;;;;;13.80;100111.00;;;;5088991;28;20502;-79
2021/11/25 05:42:45;;;;;;;3.75;1.15;;;;;13.80;100090.00;;;;5089192;28;20077;-79
2021/11/25 05:45:17;;;;;;;0.50;0.40;;;;;13.80;100093.00;;;;5087624;28;20079;-79
2021/11/25 05:47:47;;;;;;;0.45;0.45;;;;;13.80;100091.00;;;;5089612;28;20059;-79
2021/11/25 05:50:27;;;;;;;0.00;0.00;;;;;13.80;100080.00;;;;5088564;28;20457;-79
2021/11/25 05:52:58;;;;;;;0.00;0.00;;;;;13.70;100077.00;;;;5088296;28;20055;-79
2021/11/25 05:55:30;;;;;;;0.00;0.00;;;;;13.60;100074.00;;;;5088417;28;20048;-78
2021/11/25 05:58:00;;;;;;;5.93;0.65;;;;;13.50;100080.00;;;;5087039;28;20156;-78
2021/11/25 06:00:30;;;;;;;0.00;0.00;;;;;13.60;100060.00;;;;5088154;28;20036;-79
2021/11/25 06:02:59;;;;;;;0.00;0.00;;;;;13.60;100079.00;;;;5088093;28;20044;-79
2021/11/25 06:05:29;;;;;;;0.00;0.00;;;;;13.50;100069.00;;;;5088154;28;20076;-79
2021/11/25 06:08:02;;;;;;;0.00;0.00;;;;;13.60;100085.00;;;;5088507;28;20102;-79
2021/11/25 06:10:32;;;;;;;0.00;0.00;;;;;13.50;100077.00;;;;5087737;28;20498;-78
2021/11/25 06:13:02;;;;;;;0.00;0.00;;;;;13.50;100063.00;;;;5088794;28;20465;-79
2021/11/25 06:15:31;;;;;;;0.52;0.52;;;;;13.40;100048.00;;;;5088373;28;20036;-79
2021/11/25 06:18:01;;;;;;;0.00;0.00;;;;;13.50;100063.00;;;;5086846;28;20767;-79
2021/11/25 06:20:30;;;;;;;0.00;0.00;;;;;13.40;100060.00;;;;5085486;28;20575;-79
2021/11/25 06:23:00;;;;;;;0.30;0.22;;;;;13.30;100061.00;;;;5087733;28;20048;-79
2021/11/25 06:25:29;;;;;;;0.00;0.00;;;;;13.40;100044.00;;;;5087440;28;20139;-79
2021/11/25 06:27:58;;;;;;;0.00;0.00;;;;;13.40;100055.00;;;;5088265;28;20105;-79
2021/11/25 06:30:27;;;;;;;0.00;0.00;;;;;13.40;100068.00;;;;5087386;28;20052;-79
2021/11/25 06:32:57;;;;;;;0.00;0.00;;;;;13.40;100054.00;;;;5087954;28;20101;-79
2021/11/25 06:35:26;;;;;;;0.00;0.00;;;;;13.40;100066.00;;;;5086747;28;20059;-79
2021/11/25 06:37:56;;;;;;;0.00;0.00;;;;;13.50;100052.00;;;;5088306;28;20090;-79
2021/11/25 06:40:30;;;;;;;0.00;0.00;;;;;13.40;100062.00;;;;5089016;28;20047;-79
2021/11/25 06:43:04;;;;;;;0.00;0.00;;;;;13.30;100054.00;;;;5087914;28;20533;-79
2021/11/25 06:45:34;;;;;;;0.43;0.43;;;;;13.40;100053.00;;;;5086220;28;20044;-79
2021/11/25 06:48:04;;;;;;;0.52;0.47;;;;;13.40;100060.00;;;;5086907;28;20055;-79
2021/11/25 06:50:34;;;;;;;0.00;0.00;;;;;13.40;100046.00;;;;5087895;28;20093;-79
2021/11/25 06:53:04;;;;;;;1.65;1.13;;;;;13.40;100066.00;;;;5086799;28;20051;-79
2021/11/25 06:55:34;;;;;;;0.00;0.00;;;;;13.40;100076.00;;;;5087822;28;20044;-79
2021/11/25 06:58:03;;;;;;;0.00;0.00;;;;;13.30;100064.00;;;;5086391;28;20066;-79
2021/11/25 07:00:33;;;;;;;0.00;0.00;;;;;13.30;100078.00;;;;5087592;28;20046;-79
2021/11/25 07:03:03;;;;;;;0.00;0.00;;;;;13.40;100067.00;;;;5087676;28;20071;-79
2021/11/25 07:05:32;;;;;;;0.00;0.00;;;;;13.30;100074.00;;;;5088148;28;20044;-79
2021/11/25 07:08:01;;;;;;;0.00;0.00;;;;;13.20;100055.00;;;;5087695;28;20044;-79
2021/11/25 07:10:32;;;;;;;0.00;0.00;;;;;13.20;100045.00;;;;5087578;28;20110;-79
2021/11/25 07:13:01;;;;;;;0.00;0.00;;;;;13.20;100055.00;;;;5087899;28;20050;-79
2021/11/25 07:15:30;;;;;;;0.00;0.00;;;;;13.30;100050.00;;;;5085991;28;20052;-79
2021/11/25 07:18:01;;;;;;;0.00;0.00;;;;;13.30;100060.00;;;;5086060;28;20104;-79
2021/11/25 07:20:30;;;;;;;0.00;0.00;;;;;13.30;100065.00;;;;5085525;28;20060;-79
2021/11/25 07:23:00;;;;;;;1.25;0.17;;;;;13.20;100053.00;;;;5087354;28;20098;-79
2021/11/25 07:25:29;;;;;;;0.00;0.00;;;;;13.30;100040.00;;;;5086878;28;20055;-79
2021/11/25 07:27:59;;;;;;;0.00;0.00;;;;;13.20;100046.00;;;;5087310;28;20058;-79
2021/11/25 07:30:28;;;;;;;0.00;0.00;;;;;13.20;100069.00;;;;5087465;28;20486;-79
2021/11/25 07:32:58;;;;;;;0.00;0.00;;;;;13.10;100052.00;;;;5086851;28;20411;-80
2021/11/25 07:35:27;;;;;;;0.10;0.10;;;;;13.10;100073.00;;;;5085524;28;20407;-79
2021/11/25 07:37:57;;;;;;;0.00;0.00;;;;;13.10;100075.00;;;;5087097;28;20081;-80
2021/11/25 07:40:27;;;;;;;0.10;0.10;;;;;13.10;100089.00;;;;5085786;28;20578;-80
2021/11/25 07:42:56;;;;;;;0.10;0.10;;;;;13.10;100081.00;;;;5086876;28;20426;-79
2021/11/25 07:45:28;;;;;;;0.00;0.00;;;;;13.20;100079.00;;;;5086664;28;20052;-79
2021/11/25 07:47:57;;;;;;;0.10;0.10;;;;;13.20;100076.00;;;;5087126;28;20044;-79
2021/11/25 07:50:27;;;;;;;0.00;0.00;;;;;13.20;100077.00;;;;5086423;28;21488;-79
2021/11/25 07:52:58;;;;;;;0.00;0.00;;;;;13.10;100078.00;;;;5087270;28;20040;-79
2021/11/25 07:55:28;;;;;;;0.00;0.00;;;;;13.10;100081.00;;;;5086942;28;20040;-79
2021/11/25 07:57:58;;;;;;;0.00;0.00;;;;;13.10;100077.00;;;;5085872;28;20048;-79
2021/11/25 08:00:28;;;;;;;0.00;0.00;;;;;13.10;100073.00;;;;5087782;28;20047;-80
2021/11/25 08:02:58;;;;;;;0.00;0.00;;;;;13.10;100091.00;;;;5086379;28;20583;-79
2021/11/25 08:05:28;;;;;;;0.00;0.00;;;;;13.10;100088.00;;;;5087088;28;20507;-80
2021/11/25 08:07:58;;;;;;;0.00;0.00;;;;;13.10;100088.00;;;;5087094;28;20109;-79
2021/11/25 08:10:30;;;;;;;0.00;0.00;;;;;13.20;100069.00;;;;5086931;28;20044;-79
2021/11/25 08:13:03;;;;;;;0.00;0.00;;;;;13.10;100078.00;;;;5085276;28;20106;-80
2021/11/25 08:15:33;;;;;;;0.08;0.08;;;;;13.20;100092.00;;;;5087256;28;20068;-79
2021/11/25 08:18:03;;;;;;;0.00;0.00;;;;;13.20;100085.00;;;;5085094;28;20047;-79
2021/11/25 08:20:33;;;;;;;0.00;0.00;;;;;13.30;100097.00;;;;5086592;28;20040;-79
2021/11/25 08:23:02;;;;;;;0.00;0.00;;;;;13.30;100086.00;;;;5086561;28;20032;-80
2021/11/25 08:25:31;;;;;;;0.17;0.17;;;;;13.30;100090.00;;;;5088397;28;20051;-79
2021/11/25 08:28:01;;;;;;;0.00;0.00;;;;;13.40;100095.00;;;;5087840;28;20520;-79
2021/11/25 08:30:31;;;;;;;0.00;0.00;;;;;13.40;100095.00;;;;5086580;28;20547;-79
2021/11/25 08:33:00;;;;;;;1.20;0.55;;;;;13.50;100083.00;;;;5086304;28;20052;-78
2021/11/25 08:35:30;;;;;;;0.00;0.00;;;;;13.70;100094.00;;;;5086398;28;20052;-79
2021/11/25 08:38:02;;;;;;;0.38;0.30;;;;;13.70;100068.00;;;;5084904;28;20055;-79
2021/11/25 08:40:32;;;;;;;0.00;0.00;;;;;13.80;100085.00;;;;5085059;28;20040;-79
2021/11/25 08:43:01;;;;;;;0.00;0.00;;;;;13.90;100076.00;;;;5086058;28;20040;-79
2021/11/25 08:45:33;;;;;;;0.13;0.10;;;;;14.00;100070.00;;;;5089381;28;20093;-79
2021/11/25 08:48:03;;;;;;;0.00;0.00;;;;;14.10;100086.00;;;;5089185;28;20460;-80
2021/11/25 08:50:33;;;;;;;0.00;0.00;;;;;14.20;100067.00;;;;5090444;28;20048;-80
2021/11/25 08:53:03;;;;;;;0.40;0.40;;;;;14.30;100087.00;;;;5090408;28;20047;-80
2021/11/25 08:55:36;;;;;;;0.00;0.00;;;;;14.30;100099.00;;;;5090440;28;20044;-79
2021/11/25 08:58:06;;;;;;;0.00;0.00;;;;;14.40;100098.00;;;;5090631;28;20093;-79
2021/11/25 09:00:36;;;;;;;0.00;0.00;;;;;14.50;100090.00;;;;5090123;28;20647;-79
2021/11/25 09:03:06;;;;;;;0.00;0.00;;;;;14.60;100081.00;;;;5090120;28;20113;-79
2021/11/25 09:05:36;;;;;;;0.20;0.20;;;;;14.80;100100.00;;;;5089451;28;20048;-79
2021/11/25 09:08:06;;;;;;;0.00;0.00;;;;;14.90;100091.00;;;;5089296;28;20044;-79
2021/11/25 09:10:39;;;;;;;0.00;0.00;;;;;15.10;100107.00;;;;5089869;28;20124;-79
2021/11/25 09:13:08;;;;;;;1.60;1.08;;;;;15.20;100106.00;;;;5089663;28;20040;-79
2021/11/25 09:15:39;;;;;;;0.00;0.00;;;;;15.40;100120.00;;;;5088994;28;20044;-79
2021/11/25 09:18:10;;;;;;;1.38;1.08;;;;;15.50;100120.00;;;;5090315;28;20036;-80
2021/11/25 09:20:40;;;;;;;0.35;0.35;;;;;15.60;100126.00;;;;5089891;28;20059;-80
2021/11/25 09:23:19;;;;;;;0.10;0.10;;;;;16.30;100085.00;;;;5090066;28;20105;-79
2021/11/25 09:25:50;;;;;;;0.45;0.45;;;;;16.20;100106.00;;;;5089702;28;20044;-79
2021/11/25 09:28:27;;;;;;;0.15;0.15;;;;;16.10;100126.00;;;;5089708;28;20515;-78
2021/11/25 09:30:57;;;;;;;0.28;0.10;;;;;16.10;100138.00;;;;5089569;28;20052;-79
2021/11/25 09:33:26;;;;;;;0.20;0.17;;;;;16.30;100127.00;;;;5089178;28;20138;-79
2021/11/25 09:35:56;;;;;;;0.47;0.30;;;;;16.30;100124.00;;;;5087871;28;20048;-79
2021/11/25 09:38:25;;;;;;;0.30;0.30;;;;;16.40;100122.00;;;;5087610;28;20052;-79
2021/11/25 09:40:55;;;;;;;0.10;0.10;;;;;16.70;100106.00;;;;5089115;28;20067;-79
2021/11/25 09:43:25;;;;;;;1.45;1.35;;;;;17.30;100109.00;;;;5089416;28;20559;-79
2021/11/25 09:45:55;;;;;;;1.42;1.33;;;;;18.40;100054.00;;;;5089505;28;20755;-79
2021/11/25 09:48:27;;;;;;;0.00;0.00;;;;;19.40;100080.00;;;;5089597;28;20048;-80
2021/11/25 09:50:57;;;;;;;0.00;0.00;;;;;18.40;100127.00;;;;5088115;28;20089;-81
2021/11/25 09:53:28;;;;;;;0.00;0.00;;;;;18.10;100146.00;;;;5087508;28;20055;-78
2021/11/25 09:55:58;;;;;;;0.00;0.00;;;;;17.80;100128.00;;;;5088378;28;20113;-79
2021/11/25 09:58:31;;;;;;;0.10;0.10;;;;;17.70;100119.00;;;;5086989;28;20728;-79
2021/11/25 10:01:13;;;;;;;1.27;1.20;;;;;18.00;100142.00;;;;5088273;28;20055;-79
2021/11/25 10:03:48;;;;;;;0.00;0.00;;;;;18.10;100135.00;;;;5088176;28;20032;-80
2021/11/25 10:06:21;;;;;;;0.35;0.35;;;;;18.20;100120.00;;;;5089183;28;20036;-79
2021/11/25 10:08:52;;;;;;;0.13;0.10;;;;;18.30;100114.00;;;;5089555;28;20394;-81
2021/11/25 10:11:32;;;;;;;;;;;;;19.40;100070.00;;;;5089348;28;20552;-81
2021/11/25 10:14:08;;;;;;;0.00;0.00;;;;;20.60;100043.00;;;;5088538;28;19931;-79
2021/11/25 10:16:54;;;;;;;0.00;0.00;;;;;25.50;99920.00;;;;5096336;28;20516;-80
2021/11/25 10:19:27;;;;;;;2.40;1.23;;;;;27.00;99897.00;;;;5109518;28;20039;-79
2021/11/25 10:22:07;;;;;;;0.88;0.70;;;;;28.20;99868.00;;;;5092188;28;20085;-81
2021/11/25 10:24:43;;;;;;;0.00;0.00;;;;;25.10;100026.00;;;;5108998;28;20040;-84
2021/11/25 10:27:27;;;;;;;0.22;0.10;;;;;23.80;99999.00;;;;5108352;28;20046;-81
2021/11/25 10:30:15;;;;;;;0.32;0.32;;;;;23.10;100047.00;;;;5108961;28;20047;-80
2021/11/25 10:33:01;;;;;;;29.42;18.75;;;;;22.20;100055.00;;;;5108278;28;20048;-80
2021/11/25 10:35:47;;;;;;;8.35;0.75;;;;;21.90;100057.00;;;;5109071;28;20047;-82
2021/11/25 10:40:46;;;;;;;2.35;0.50;;;;;22.20;100057.00;;;;5108540;28;20039;-82
2021/11/25 10:43:25;;;;;;;2.67;1.95;;;;;22.00;100050.00;;;;5090154;28;20048;-83
2021/11/25 10:45:55;;;;;;;0.20;0.20;;;;;23.20;99978.00;;;;5108662;28;20559;-81
2021/11/25 10:48:33;;;;;;;0.00;0.00;;;;;25.40;99984.00;;;;5109066;28;20048;-78
2021/11/25 10:51:29;;;;;;;1.70;0.50;;;;;25.80;99970.00;;;;5107992;28;20131;-80
2021/11/25 10:54:22;;;;;;;0.00;0.00;;;;;29.80;99870.00;;;;5101966;28;20060;-79
2021/11/25 10:56:56;;;;;;;0.00;0.00;;;;;31.00;99865.00;;;;5108695;28;20074;-81
2021/11/25 10:59:40;;;;;;;0.00;0.00;;;;;32.00;99852.00;;;;5108430;28;20066;-81
2021/11/25 11:02:28;;;;;;;0.20;0.20;;;;;32.10;99871.00;;;;5108189;28;20046;-82
2021/11/25 11:05:03;;;;;;;0.28;0.10;;;;;32.30;99881.00;;;;5108487;28;20043;-81
2021/11/25 11:07:36;;;;;;;0.38;0.35;;;;;32.70;99876.00;;;;5127812;28;20055;-81
2021/11/25 11:10:29;;;;;;;0.17;0.10;;;;;32.60;99876.00;;;;5096742;28;20182;-81
2021/11/25 11:15:57;;;;;;;0.00;0.00;;;;;33.00;99863.00;;;;5107773;28;20140;-81
2021/11/25 11:21:39;;;;;;;0.80;0.52;;;;;32.30;99878.00;;;;5107646;28;20047;-82
2021/11/25 11:24:14;;;;;;;0.20;0.20;;;;;32.00;99862.00;;;;5108036;28;20614;-80
2021/11/25 11:26:50;;;;;;;0.00;0.00;;;;;31.00;99883.00;;;;5108357;28;20044;-82
2021/11/25 11:29:26;;;;;;;2.67;0.98;;;;;30.90;99868.00;;;;5108102;28;20043;-80
2021/11/25 11:31:58;;;;;;;1.90;0.80;;;;;30.30;99868.00;;;;5107634;28;20048;-81
2021/11/25 11:34:29;;;;;;;0.00;0.00;;;;;30.30;99877.00;;;;5089478;28;20456;-79
2021/11/25 11:37:01;;;;;;;0.40;0.20;;;;;29.70;99871.00;;;;5107337;28;20047;-79
2021/11/25 11:39:33;;;;;;;0.00;0.00;;;;;29.20;99898.00;;;;5107022;28;20040;-80
2021/11/25 11:42:07;;;;;;;0.00;0.00;;;;;28.90;99905.00;;;;5107481;28;20044;-79
2021/11/25 11:44:38;;;;;;;0.05;0.05;;;;;29.10;99958.00;;;;5106736;28;20042;-80
2021/11/25 11:47:11;;;;;;;0.10;0.10;;;;;28.90;99994.00;;;;5107933;28;20048;-80
2021/11/25 11:49:44;;;;;;;14.82;1.27;;;;;28.60;99988.00;;;;5108064;28;20277;-80
2021/11/25 11:52:17;;;;;;;0.00;0.00;;;;;28.80;99990.00;;;;5107556;28;20040;-80
2021/11/25 11:54:57;;;;;;;0.38;0.20;;;;;28.80;99987.00;;;;5107528;28;20035;-81
2021/11/25 11:57:44;;;;;;;2.70;1.43;;;;;28.80;99978.00;;;;5107377;28;20039;-81
2021/11/25 12:00:19;;;;;;;0.15;0.15;;;;;29.20;99985.00;;;;5107794;28;20043;-82
2021/11/25 12:02:52;;;;;;;0.85;0.52;;;;;29.20;99980.00;;;;5107177;28;20054;-80
2021/11/25 12:05:49;;;;;;;2.42;0.25;;;;;29.30;99984.00;;;;5088984;28;20139;-80
2021/11/25 12:08:25;;;;;;;0.43;0.43;;;;;29.50;99976.00;;;;5108394;28;20071;-80
2021/11/25 12:11:01;;;;;;;0.10;0.10;;;;;29.60;99967.00;;;;5107199;28;20413;-82
2021/11/25 12:13:40;;;;;;;0.00;0.00;;;;;29.80;99956.00;;;;5106140;28;20167;-79
2021/11/25 12:16:19;;;;;;;0.20;0.13;;;;;30.10;99954.00;;;;5108410;28;20052;-80
2021/11/25 12:18:52;;;;;;;0.35;0.13;;;;;30.50;99947.00;;;;5091839;28;20543;-80
2021/11/25 12:21:48;;;;;;;0.08;0.08;;;;;30.60;99940.00;;;;5096014;28;20044;-81
2021/11/25 12:24:26;;;;;;;0.10;0.05;;;;;31.30;99938.00;;;;5112651;28;20074;-80
2021/11/25 12:27:01;;;;;;;0.20;0.20;;;;;31.50;99930.00;;;;5111875;28;20091;-80
2021/11/25 12:29:47;;;;;;;1.80;0.88;;;;;32.00;99938.00;;;;5112018;28;20043;-81
2021/11/25 12:35:25;;;;;;;0.10;0.10;;;;;31.70;99932.00;;;;5114325;28;20044;-81
2021/11/25 12:38:03;;;;;;;0.43;0.22;;;;;31.70;99928.00;;;;5111390;28;20046;-82
2021/11/25 12:40:58;;;;;;;0.05;0.05;;;;;31.40;99925.00;;;;5111581;28;20067;-82
2021/11/25 12:43:37;;;;;;;0.00;0.00;;;;;31.60;99931.00;;;;5095419;28;20043;-81
2021/11/25 12:46:11;;;;;;;0.60;0.38;;;;;32.00;99924.00;;;;5112789;28;20043;-81
2021/11/25 12:48:42;;;;;;;0.00;0.00;;;;;32.40;99915.00;;;;5112408;28;20046;-81
2021/11/25 12:51:19;;;;;;;0.00;0.00;;;;;33.00;99911.00;;;;5092795;28;20047;-80